NWS Home NWS Lubbock West Texas Mesonet Latest Conditions as of 0949 PM, Wed Jul 08, 2020

Latest   N   C   S   Daily Sum   3hrΔ   24hrΔ   Soil Data 
Site Map   24hr Precip   72hr Precip   Google Plot


Station Time of Last Temp Dew Pt. RH Wind Direction Wind Speed Wind Gust Max Wind Max Temp Min Temp Max RH Min RH Altimeter 1HR Rain Today's Rain Solar Rad RFTI
Abernathy 5ENE  09:45 PM 88 57 37% SE1619 26 mph 196° @ 0345 PM 100 68 91 20 29.87" 0 0 0 0
Adrian 6WSW  09:45 PM 84 42 23% S1415 29 mph 142° @ 0239 AM 101 67 82 12 29.87" 0 0 0 0
Aiken 3WSW  09:45 PM 86 60 41% SE1315 24 mph 162° @ 0646 PM 101 66 94 23 29.87" 0 0 0 0
Amarillo 15NNW   09:45 PM 93 56 29% S1720 36 mph 90° @ 1208 AM 105 70 82 14 29.80" 0 0.02 0 0
Amarillo 7SSE  09:45 PM 89 57 34% S1619 28 mph 180° @ 0309 PM 103 67 100 19 29.86" 0 0 0 0
Amarillo 9NNE  09:45 PM 92 57 31% S2027 35 mph 186° @ 1243 PM 103 69 90 19 29.81" 0 0.01 0 0
Amherst 1NE  09:45 PM 90 55 32% SE1318 37 mph 205° @ 0245 PM 102 68 83 18 29.87" 0 0 0 0
Andrews 2E  09:45 PM 92 55 30% SE1013 22 mph 186° @ 1045 AM 103 69 78 21 29.87" 0 0 0 0
Anton 6SSW  09:45 PM 90 56 32% SE1316 30 mph 172° @ 0510 PM 102 68 84 21 29.86" 0 0 0 0
Aspermont 3NE  09:45 PM 91 69 49% SE1013 24 mph 147° @ 0840 PM 101 68 98 31 29.81" 0 0 0 0
Big Bend NP - Castolon  09:45 PM 97 58 28% SE1315 20 mph 140° @ 0931 PM 106 77 74 16 29.78" 0 0 0 0
Big Bend NP - Persimmon Gap  09:45 PM 93 60 33% NE1214 23 mph 56° @ 0651 PM 104 77 59 17 29.87" 0 0 0 0
Big Lake 1WNW  09:45 PM 89 63 42% SE711 30 mph 169° @ 0416 PM 99 72 90 27 29.89" 0 0 0 0
Bootleg 11WNW  09:45 PM 81 49 33% S1212 30 mph 309° @ 0207 AM 99 67 87 12 29.92" 0 0.31 0 0
Borger 7E  09:45 PM 89 60 37% SE2026 38 mph 165° @ 1248 AM 103 72 88 19 29.79" 0 0 0 0
Boys Ranch 1WSW  09:45 PM 92 51 25% S68 24 mph 213° @ 1147 AM 105 70 91 13 29.76" 0 0 0 0
Brownfield 2S  09:45 PM 91 56 32% SE1417 25 mph 165° @ 0600 PM 102 68 82 22 29.87" 0 0 0 0
Canadian 6E  09:45 PM 89 65 45% SE1519 29 mph 169° @ 0520 PM 102 71 98 27 29.77" 0 0 0 0
Caprock Canyons State Park  09:45 PM 91 55 30% SE1012 27 mph 158° @ 0336 PM 103 69 91 18 29.82" 0 0 0 0
Childress 2NNE  09:45 PM 91 65 45% SE1317 23 mph 160° @ 0505 PM 100 70 99 27 29.78" 0 0 0 0
Clarendon 2WSW  09:45 PM 89 58 36% SE1519 29 mph 169° @ 0605 PM 101 71 93 23 29.82" 0 0 0 0
Claude 12SW  09:45 PM 91 57 32% S1317 28 mph 175° @ 0627 PM 101 69 100 22 29.85" 0 0.01 0 0
Clyde 2WNW  09:45 PM 84 70 63% SE810 20 mph 216° @ 1001 AM 96 69 96 42 29.87" 0 0 0 0
Colorado City 5NW  09:45 PM 89 67 49% SE1317 21 mph 171° @ 0443 PM 102 69 95 27 29.85" 0 0 0 0
Comanche Springs  09:45 PM 91 68 48% SE814 23 mph 154° @ 0539 PM 102 69 99 30 29.78" 0 0 0 0
Coyanosa 2N  09:45 PM 94 59 31% SE1214 23 mph 115° @ 0803 PM 106 72 67 17 29.84" 0 0 0 0
Crane 1NNW   09:45 PM 94 60 32% S1315 23 mph 172° @ 0918 AM 104 72 77 22 29.85" 0 0 0 0
Crowell 1E  09:45 PM 92 68 47% S1113 22 mph 161° @ 0743 PM 102 71 97 30 29.78" 0 0 0 0
Dell City  09:45 PM 91 54 28% SE1517 20 mph 144° @ 0938 PM 106 65 77 14 29.88" 0 0 0 0
Denver City 7WNW  09:45 PM 88 50 28% SE1013 23 mph 188° @ 1245 PM 101 66 84 15 29.88" 0 0 0 0
Dimmitt 2NE  09:45 PM 87 57 37% S1518 36 mph 186° @ 0235 PM 100 67 87 20 29.87" 0 0 0 0
Doole 3WNW  09:45 PM 83 70 66% SE66 37 mph 268° @ 0525 PM 100 68 98 35 29.84" 0 0 0 0
Dora NM 2SW  09:45 PM 84 43 24% S1214 24 mph 184° @ 0830 AM 102 67 77 11 29.91" 0 0 0 0
Dozier 3W  09:45 PM 90 68 47% SE1823 25 mph 149° @ 0434 PM 103 70 100 29 29.80" 0 0 0 0
Earth 9WSW  09:45 PM 87 57 36% SE1113 26 mph 181° @ 1144 AM 103 70 77 19 29.87" 0 0 0 0
Endee NM 2SW  09:45 PM 85 49 29% SE1111 43 mph 214° @ 0126 AM 102 68 80 13 29.84" 0 0.77 0 0
Estelline 3SSE  09:45 PM 91 65 44% SE1113 25 mph 134° @ 0615 PM 101 72 96 29 29.76" 0 0 0 0
Floydada 2NNE  09:45 PM 87 55 34% SE1012 27 mph 193° @ 0500 PM 100 66 89 22 29.87" 0 0 0 0
Fluvanna 3WNW  09:45 PM 89 62 43% SE1417 20 mph 157° @ 0705 PM 99 69 91 25 29.86" 0 0 0 0
Fort Chadbourne  09:45 PM 84 69 60% SE68 28 mph 130° @ 0623 PM 101 68 100 32 29.86" 0 0 0 0
Fort Lancaster  09:45 PM 92 65 41% SE1113 23 mph 139° @ 0115 PM 101 73 89 27 29.84" 0 0 0 0
Fort Lewis CO  09:45 PM 61 38 42% N77 32 mph 259° @ 0132 PM 84 44 57 14 30.22" 0 0 2 0
Fort McKavett  09:45 PM 89 65 44% SE1113 19 mph 181° @ 0306 PM 99 72 95 35 29.89" 0 0 0 0
Friona 2NE  09:45 PM 80 50 36% S911 32 mph 143° @ 0345 AM 102 66 90 11 29.88" 0 0 0 0
Fritch 1WNW  09:45 PM 91 58 33% S1620 40 mph 189° @ 1225 AM 102 71 86 20 29.78" 0 0 0 0
Gail 2ESE  09:45 PM 88 59 39% SE78 21 mph 183° @ 0250 PM 101 68 93 22 29.84" 0 0 0 0
Goodlett 3W  09:45 PM 91 66 46% SE1013 25 mph 201° @ 0230 PM 102 71 95 28 29.76" 0 0 0 0
Goodnight  09:45 PM 89 57 34% SE1517 26 mph 185° @ 0335 PM 102 69 96 22 29.85" 0 0 0 0
Graham 5SSW  09:45 PM 89 55 33% SE1012 23 mph 179° @ 0345 PM 98 68 91 22 29.86" 0 0 0 0
Guadalupe Mtns Natl Park  09:45 PM 79 53 43% N22 30 mph 342° @ 0426 PM 95 66 64 20 30.09" 0 0 0 0
Guthrie 10WSW  09:45 PM 90 64 45% SE1418 22 mph 177° @ 0325 PM 101 70 89 23 29.80" 0 0 0 0
Hackberry 2SSE  09:45 PM 91 67 46% SE1416 21 mph 144° @ 0724 PM 102 70 94 27 29.79" 0 0 0 0
Happy 1E  09:45 PM 87 58 37% S1618 31 mph 184° @ 0629 PM 100 66 94 25 29.87" 0 0 0 0
Hart 3N  09:45 PM 86 57 38% SE1115 26 mph 181° @ 0200 PM 100 66 94 22 29.87" 0 0 0 0
Haskell 1NW  09:45 PM 90 68 51% SE813 21 mph 200° @ 0310 PM 99 72 86 35 29.80" 0 0 0 0
Hefner 1SW  09:45 PM 90 68 48% SE1011 24 mph 180° @ 0502 PM 103 71 91 31 29.80" 0 0 0 0
Hereford 2NW  09:45 PM 89 56 34% SE1421 26 mph 220° @ 1150 AM 102 69 83 15 29.86" 0 0 0 0
Hobbs NM 5NW  09:45 PM 92 47 21% S1013 22 mph 222° @ 0214 PM 102 70 62 14 29.91" 0 0 0 0
Jayton 1SSE  09:45 PM 91 67 48% SE1419 23 mph 144° @ 0940 PM 103 68 92 22 29.81" 0 0 0 0
Junction 1SSW  09:45 PM 90 64 43% SE69 19 mph 199° @ 0155 PM 100 70 100 34 29.88" 0 0 0 0
Kent 9E  09:45 PM 90 54 30% NE68 21 mph 203° @ 0318 PM 101 67 55 19 29.95" 0 0 0 0
Knox City 3NW  09:45 PM 92 69 49% SE1214 24 mph 153° @ 0745 PM 104 70 94 28 29.78" 0 0 0 0
Lake Alan Henry 1NW  09:45 PM 91 66 43% SE810 23 mph 211° @ 0332 PM 103 71 86 22 29.82" 0 0 0 0
Lake McClellan 2NW  09:45 PM 87 60 40% SE1721 32 mph 128° @ 0649 PM 100 69 96 25 29.85" 0 0 0 0
Lamesa 2SE  09:45 PM 89 56 33% SE912 24 mph 187° @ 1150 AM 101 70 85 20 29.86" 0 0 0 0
Lesley 2S  09:45 PM 92 62 38% SE1114 28 mph 180° @ 0616 PM 105 72 94 24 29.77" 0 0 0 0
Levelland 4S  09:45 PM 90 56 32% SE1319 25 mph 165° @ 0705 PM 102 68 79 21 29.87" 0 0 0 0
Lomax 1SSE  09:45 PM 92 60 35% SE1415 21 mph 152° @ 0826 PM 103 72 85 20 29.84" 0 0 0 0
Lubbock 3WNW TTU  09:45 PM 92 55 31% SE1119 25 mph 145° @ 0920 PM 102 71 75 22 29.86" 0 0 0 0
McAdoo 3NNW  09:45 PM 88 62 42% SE1113 28 mph 164° @ 0400 PM 99 68 90 27 29.87" 0 0 0 0
McCamey 1SSW  09:45 PM 93 62 35% SE1113 23 mph 147° @ 0656 PM 103 76 74 25 29.86" 0 0 0 0
McLean 1E  09:45 PM 88 58 38% SE1218 28 mph 186° @ 0230 PM 99 70 97 28 29.81" 0 0 0 0
Memphis 1NE  09:45 PM 91 59 36% SE1215 28 mph 136° @ 0625 PM 101 71 95 27 29.78" 0 0 0 0
Menard 2NW   09:45 PM 88 67 51% SE1113 21 mph 142° @ 0517 PM 99 72 100 34 29.88" 0 0 0 0
Mertzon 3NNE  09:45 PM 86 66 52% S45 22 mph 165° @ 1258 PM 99 66 100 32 29.87" 0 0 0 0
Morton 1ENE  09:45 PM 91 51 27% SE1419 28 mph 178° @ 0305 PM 102 70 69 17 29.87" 0 0 0 0
Muleshoe 2SSW  09:45 PM 85 54 36% SE911 24 mph 217° @ 1220 PM 102 70 79 11 29.86" 0 0 0 0
New Home  09:45 PM 89 58 36% SE811 24 mph 195° @ 0512 PM 101 68 87 23 29.88" 0 0 0 0
Northfield 1S  09:45 PM 91 57 33% SE1115 26 mph 169° @ 0505 PM 104 71 95 21 29.78" 0 0 0 0
O'Donnell 1N  09:45 PM 88 59 40% SE812 21 mph 197° @ 0215 PM 99 69 88 24 29.87" 0 0 0 0
Odell 4ENE  09:45 PM 88 75 65% SE1821 22 mph 134° @ 0941 PM 99 73 94 39 29.79" 0 0 0 0
Olton 6S  09:45 PM 86 58 41% SE1520 26 mph 156° @ 0540 PM 100 67 91 25 29.88" 0 0 0 0
Paducah 10SW  09:45 PM 90 65 47% S1216 22 mph 170° @ 0600 PM 100 69 95 28 29.79" 0 0 0 0
Palo Duro 4E (JA Ranch)  09:45 PM 91 61 37% SE1113 27 mph 171° @ 1236 PM 104 69 97 21 29.79" 0 0 0 0
Palo Duro Canyon SP Floor  09:45 PM 94 58 30% SE1516 27 mph 132° @ 0559 PM 105 71 84 22 29.80" 0 0 0 0
Palo Duro Canyon State Park Rim  09:45 PM 91 56 31% S1015 29 mph 166° @ 0910 PM 102 69 87 23 29.86" 0 0 0 0
Palo Duro Reservoir 1NW   09:45 PM 89 61 39% SE1823 35 mph 188° @ 0133 PM 105 70 89 18 29.76" 0 0 0 0
Pampa 2E  09:45 PM 87 60 42% SE1923 29 mph 142° @ 0830 PM 98 69 97 26 29.82" 0 0 0 0
Panhandle 1SSW  09:45 PM 85 59 41% S1114 35 mph 165° @ 0139 AM 99 68 100 26 29.85" 0 0 0 0
Plains 3N  09:45 PM 91 55 31% SE1418 24 mph 152° @ 0835 PM 102 70 74 19 29.88" 0 0 0 0
Plainview 1S  09:45 PM 89 56 34% SE1015 25 mph 208° @ 0230 PM 100 68 91 23 29.85" 0 0 0 0
Post 1NE  09:45 PM 89 58 38% SE811 20 mph 175° @ 0105 PM 101 70 87 21 29.84" 0 0 0 0
Ralls 1SE  09:45 PM 86 56 38% SE1012 24 mph 177° @ 0230 PM 98 69 83 23 29.87" 0 0 0 0
Reese Center  09:45 PM 91 56 31% SE1721 27 mph 195° @ 0549 PM 100 69 86 23 29.86" 0 0 0 0
Roaring Springs 3N  09:45 PM 89 59 39% SE1012 28 mph 197° @ 0210 PM 101 66 100 27 29.83" 0 0 0 0
Romero 11SSW  09:45 PM 89 43 20% SE1113 26 mph 170° @ 0555 PM 103 66 91 11 29.82" 0 0.01 0 0
Rotan 5W  09:45 PM 90 66 45% SE1719 27 mph 142° @ 0904 PM 104 70 85 21 29.84" 0 0 0 0
San Angelo 7NW  09:45 PM 86 66 54% SE811 20 mph 178° @ 0225 PM 99 69 98 31 29.85" 0 0 0 0
Seagraves 1SW  09:45 PM 90 57 35% SE912 22 mph 163° @ 0230 PM 102 69 80 22 29.87" 0 0 0 0
Segovia 7SSW  09:45 PM 87 63 45% SE911 22 mph 140° @ 1239 PM 97 75 88 35 29.92" 0 0 0 0
Seminole 2NNE  09:45 PM 89 52 29% SE1114 24 mph 157° @ 0435 PM 102 68 78 18 29.86" 0 0 0 0
Seymour 3NW  09:45 PM 88 74 66% SE1417 20 mph 148° @ 0545 PM 101 71 97 33 29.79" 0 0 0 0
Sierra Blanca 1SSE  09:45 PM 87 50 27% S1012 23 mph 146° @ 0649 PM 103 71 54 16 29.98" 0 0 0 0
Silverton 7ESE  09:45 PM 89 57 35% S1218 31 mph 199° @ 0330 PM 102 66 95 22 29.85" 0 0 0 0
Slaton 2NE  09:45 PM 88 57 36% SE910 27 mph 146° @ 0340 PM 100 67 84 24 29.87" 0 0 0 0
Smyer  09:45 PM 90 57 33% SE1012 25 mph 185° @ 0701 PM 101 69 82 24 29.87" 0 0 0 0
Snyder 3E  09:45 PM 88 65 48% SE1518 25 mph 144° @ 0615 PM 100 70 93 29 29.85" 0 0 0 0
Snyder 3SSW  09:45 PM 89 67 47% SE1316 25 mph 162° @ 0314 PM 102 70 95 25 29.85" 0 0 0 0
South Plains 3ENE  09:45 PM 86 58 39% SE1113 25 mph 170° @ 0513 PM 101 65 96 23 29.86" 0 0 0 0
Spur 1W  09:45 PM 88 62 44% SE58 26 mph 170° @ 0410 PM 101 69 92 25 29.81" 0 0 0 0
St. Lawrence 5SW  09:45 PM 91 60 36% SE1417 23 mph 173° @ 0910 AM 101 70 86 24 29.87" 0 0 0 0
Stamford 5ESE  09:45 PM 90 69 50% S1216 24 mph 165° @ 0431 PM 101 70 91 32 29.82" 0 0 0 0
Sterling City 4WSW  09:45 PM 90 61 38% SE710 24 mph 168° @ 1256 PM 101 66 100 26 29.87" 0 0 0 0
Stinnett 1NNW  09:45 PM 92 57 31% SE1620 31 mph 212° @ 0211 PM 103 71 94 20 29.81" 0 0 0 0
Stratford 4WNW  09:45 PM 80 58 46% SE1111 34 mph 215° @ 1209 PM 101 64 94 16 29.80" 0 0 0 0
Sundown 8WSW  09:45 PM 88 53 31% SE1217 27 mph 185° @ 0410 PM 103 66 80 17 29.88" 0 0 0 0
Sweetwater 11SW   09:45 PM 85 65 52% SE1416 25 mph 168° @ 0915 AM 99 71 89 27 29.88" 0 0 0 0
Tahoka 3NNE  09:45 PM 90 58 34% SE1113 24 mph 196° @ 1042 AM 102 68 85 22 29.86" 0 0 0 0
Tarzan 2WNW  09:45 PM 91 61 36% SE912 19 mph 145° @ 0653 PM 102 71 88 23 29.86" 0 0 0 0
Tatum NM 2SW  09:45 PM 87 48 27% SE1214 22 mph 177° @ 0845 AM 102 64 83 14 29.90" 0 0 0 0
Throckmorton 1SW  09:45 PM 88 71 58% SE89 19 mph 147° @ 0654 PM 100 70 100 36 29.81" 0 0 0 0
Truscott 2SE  09:45 PM 92 68 46% SE1214 27 mph 201° @ 0454 PM 102 70 95 29 29.79" 0 0 0 0
Tulia 2ENE  09:45 PM 88 57 37% SE1621 30 mph 184° @ 0410 PM 100 66 90 25 29.86" 0 0 0 0
Turkey 2WSW  09:45 PM 91 59 34% SE1316 27 mph 158° @ 0420 PM 103 71 93 24 29.79" 0 0 0 0
Umbarger 3NNE  09:45 PM 88 58 36% S1621 35 mph 219° @ 0107 PM 100 65 93 21 29.87" 0 0 0 0
Van Horn 3ENE  09:45 PM 92 50 24% S55 25 mph 279° @ 0501 PM 102 71 66 15 29.93" 0 0 0 0
Vigo Park  09:45 PM 87 58 38% S1315 27 mph 176° @ 0124 PM 100 67 100 24 29.86" 0 0 0 0
Wall 2E  09:45 PM 86 67 53% SE810 27 mph 103° @ 0621 PM 100 69 100 33 29.86" 0 0 0 0
Weinert 2NNE  09:45 PM 92 68 46% S1215 23 mph 178° @ 0536 PM 102 71 88 32 29.80" 0 0 0 0
Welch  09:45 PM 89 59 36% SE1314 23 mph 162° @ 0607 PM 101 67 100 23 29.87" 0 0 0 0
White River Lake 6NW  09:45 PM 88 59 39% SE1013 28 mph 169° @ 0300 PM 99 70 85 27 29.84" 0 0 0 0
Wolfforth 6SSW  09:45 PM 88 57 36% SE1115 30 mph 205° @ 0255 PM 100 69 89 24 29.87" 0 0 0 0

West Texas Mesonet Home   Site Map/Menu  NWS Lubbock Soil Data  Daily Summary Page  24hr Precip  72hr Precip  Google Plot